createdAt,value
2018-08-23T00:00:12.326Z,86.40
2018-08-23T00:01:27.261Z,86.40
2018-08-23T00:02:33.798Z,86.50
2018-08-23T00:03:40.129Z,86.90
2018-08-23T00:04:44.328Z,86.80
2018-08-23T00:05:54.498Z,86.80
2018-08-23T00:07:01.775Z,86.80
2018-08-23T00:09:40.409Z,86.80
2018-08-23T00:10:54.396Z,86.90
2018-08-23T00:12:00.740Z,87.10
2018-08-23T00:13:07.235Z,87.20
2018-08-23T00:14:12.322Z,87.30
2018-08-23T00:15:20.050Z,87.30
2018-08-23T00:16:38.578Z,87.40
2018-08-23T00:17:47.725Z,87.50
2018-08-23T00:18:52.428Z,87.60
2018-08-23T00:19:56.500Z,87.50
2018-08-23T00:21:00.926Z,87.60
2018-08-23T00:22:05.143Z,87.80
2018-08-23T00:23:09.635Z,87.80
2018-08-23T00:24:22.775Z,88.00
2018-08-23T00:25:26.885Z,88.20
2018-08-23T00:26:30.968Z,88.20
2018-08-23T00:27:35.177Z,88.40
2018-08-23T00:28:39.412Z,88.30
2018-08-23T00:29:43.497Z,88.40
2018-08-23T00:30:47.754Z,88.60
2018-08-23T00:31:57.045Z,94.80
2018-08-23T00:33:02.676Z,88.80
2018-08-23T00:34:06.897Z,89.60
2018-08-23T00:35:16.459Z,89.00
2018-08-23T00:36:20.501Z,89.10
2018-08-23T00:37:24.547Z,89.10
2018-08-23T00:38:28.919Z,89.30
2018-08-23T00:39:33.048Z,89.40
2018-08-23T00:40:40.892Z,89.50
2018-08-23T00:41:50.038Z,89.50
2018-08-23T00:42:59.319Z,89.50
2018-08-23T00:44:04.875Z,89.50
2018-08-23T00:45:17.196Z,90.00
2018-08-23T00:46:21.459Z,89.40
2018-08-23T00:47:26.991Z,89.40
2018-08-23T00:48:31.144Z,90.00
2018-08-23T00:49:35.291Z,89.50
2018-08-23T00:51:01.163Z,89.60
2018-08-23T00:52:05.427Z,90.10
2018-08-23T00:53:09.805Z,89.70
2018-08-23T00:54:14.448Z,89.70
2018-08-23T00:55:28.368Z,89.80
2018-08-23T00:56:32.425Z,89.90
2018-08-23T00:57:37.124Z,90.10
2018-08-23T00:58:46.476Z,91.10
2018-08-23T00:59:55.203Z,89.80
2018-08-23T01:01:03.695Z,89.60
2018-08-23T01:02:09.305Z,89.60
2018-08-23T01:03:13.568Z,89.50
2018-08-23T01:04:20.368Z,90.60
2018-08-23T01:05:30.204Z,94.80
2018-08-23T01:06:43.202Z,94.50
2018-08-23T01:07:47.356Z,89.90
2018-08-23T01:08:51.689Z,89.60
2018-08-23T01:09:56.798Z,89.60
2018-08-23T01:11:00.809Z,89.60
2018-08-23T01:12:05.187Z,89.60
2018-08-23T01:13:09.254Z,89.70
2018-08-23T01:14:13.507Z,89.40
2018-08-23T01:15:17.581Z,89.30
2018-08-23T01:16:21.619Z,89.30
2018-08-23T01:17:25.704Z,89.20
2018-08-23T01:18:29.852Z,89.30
2018-08-23T01:19:39.203Z,89.50
2018-08-23T01:20:44.311Z,89.50
2018-08-23T01:21:54.573Z,89.60
2018-08-23T01:23:01.715Z,89.70
2018-08-23T01:24:06.060Z,89.70
2018-08-23T01:25:10.192Z,89.80
2018-08-23T01:26:14.327Z,89.80
2018-08-23T01:27:24.060Z,90.00
2018-08-23T01:28:28.360Z,90.00
2018-08-23T01:29:32.460Z,90.00
2018-08-23T01:30:38.046Z,90.00
2018-08-23T01:31:43.181Z,90.00
2018-08-23T01:32:47.386Z,90.00
2018-08-23T01:33:54.599Z,90.00
2018-08-23T01:35:00.274Z,90.00
2018-08-23T01:36:04.464Z,90.00
2018-08-23T01:37:08.541Z,90.00
2018-08-23T01:38:13.236Z,90.10
2018-08-23T01:39:17.713Z,90.10
2018-08-23T01:40:21.787Z,90.10
2018-08-23T01:41:26.191Z,90.20
2018-08-23T01:42:32.806Z,90.20
2018-08-23T01:43:36.923Z,90.30
2018-08-23T01:44:42.916Z,90.30
2018-08-23T01:45:46.951Z,90.30
2018-08-23T01:46:51.020Z,90.30
2018-08-23T01:47:56.041Z,90.30
2018-08-23T01:49:00.584Z,90.40
2018-08-23T01:50:04.691Z,90.40
2018-08-23T01:51:08.759Z,90.40
2018-08-23T01:52:12.796Z,90.50
2018-08-23T01:53:19.265Z,90.50
2018-08-23T01:54:23.331Z,90.50
2018-08-23T01:55:27.689Z,90.50
2018-08-23T01:56:32.036Z,90.50
2018-08-23T01:57:36.428Z,90.60
2018-08-23T02:00:09.665Z,90.60
2018-08-23T02:01:16.767Z,90.60
2018-08-23T02:02:21.101Z,90.60
2018-08-23T02:03:25.375Z,90.70
2018-08-23T02:04:29.359Z,90.60
2018-08-23T02:05:33.722Z,90.70
2018-08-23T02:06:37.818Z,90.80
2018-08-23T02:07:44.708Z,90.80
2018-08-23T02:08:48.809Z,90.90
2018-08-23T02:09:53.340Z,90.90
2018-08-23T02:10:57.384Z,91.00
2018-08-23T02:12:01.472Z,91.10
2018-08-23T02:13:10.646Z,91.10
2018-08-23T02:14:15.209Z,91.20
2018-08-23T02:15:19.348Z,91.20
2018-08-23T02:16:23.453Z,91.20
2018-08-23T02:17:27.679Z,91.30
2018-08-23T02:18:32.657Z,91.30
2018-08-23T02:19:49.030Z,91.40
2018-08-23T02:20:57.200Z,91.40
2018-08-23T02:22:01.296Z,91.40
2018-08-23T02:23:05.800Z,91.40
2018-08-23T02:24:09.860Z,91.40
2018-08-23T02:25:13.969Z,91.40
2018-08-23T02:26:18.026Z,91.50
2018-08-23T02:27:22.119Z,91.50
2018-08-23T02:28:26.211Z,91.50
2018-08-23T02:29:38.245Z,91.60
2018-08-23T02:30:50.327Z,91.60
2018-08-23T02:31:54.428Z,91.60
2018-08-23T02:32:58.671Z,91.60
2018-08-23T02:34:02.777Z,91.60
2018-08-23T02:35:07.068Z,91.70
2018-08-23T02:36:18.071Z,91.70
2018-08-23T02:37:22.340Z,91.70
2018-08-23T02:38:28.291Z,91.80
2018-08-23T02:39:32.351Z,91.80
2018-08-23T02:40:37.710Z,91.80
2018-08-23T02:41:42.357Z,91.90
2018-08-23T02:42:46.366Z,91.90
2018-08-23T02:43:50.432Z,91.90
2018-08-23T02:44:56.396Z,91.90
2018-08-23T02:46:03.224Z,91.90
2018-08-23T02:47:07.365Z,91.90
2018-08-23T02:48:11.378Z,92.00
2018-08-23T02:49:17.035Z,92.00
2018-08-23T02:50:21.054Z,92.00
2018-08-23T02:51:40.940Z,92.00
2018-08-23T02:52:45.025Z,92.10
2018-08-23T02:53:49.667Z,92.10
2018-08-23T02:54:54.075Z,92.10
2018-08-23T02:56:03.297Z,92.10
2018-08-23T02:57:11.831Z,92.40
2018-08-23T02:58:16.068Z,92.00
2018-08-23T02:59:20.125Z,92.00
2018-08-23T03:00:28.460Z,92.00
2018-08-23T03:01:34.038Z,91.90
2018-08-23T03:02:38.655Z,91.80
2018-08-23T03:03:55.038Z,91.60
2018-08-23T03:04:59.349Z,91.50
2018-08-23T03:06:03.790Z,91.50
2018-08-23T03:07:07.932Z,91.40
2018-08-23T03:08:12.187Z,91.40
2018-08-23T03:09:16.283Z,91.20
2018-08-23T03:10:20.452Z,91.30
2018-08-23T03:11:25.105Z,91.60
2018-08-23T03:12:29.171Z,91.20
2018-08-23T03:13:35.125Z,91.60
2018-08-23T03:14:39.639Z,91.30
2018-08-23T03:15:43.667Z,91.40
2018-08-23T03:17:30.986Z,91.40
2018-08-23T03:18:35.048Z,91.50
2018-08-23T03:19:39.662Z,91.60
2018-08-23T03:20:43.741Z,91.60
2018-08-23T03:21:50.945Z,91.70
2018-08-23T03:22:56.188Z,91.60
2018-08-23T03:24:00.287Z,91.60
2018-08-23T03:25:05.692Z,91.60
2018-08-23T03:26:09.751Z,91.60
2018-08-23T03:27:14.025Z,91.60
2018-08-23T03:28:18.238Z,91.60
2018-08-23T03:29:22.338Z,91.60
2018-08-23T03:30:26.393Z,91.60
2018-08-23T03:31:30.499Z,91.40
2018-08-23T03:32:34.498Z,91.30
2018-08-23T03:33:38.662Z,91.40
2018-08-23T03:34:42.713Z,91.40
2018-08-23T03:35:46.802Z,91.40
2018-08-23T03:36:50.871Z,91.40
2018-08-23T03:37:54.965Z,91.40
2018-08-23T03:38:59.320Z,91.50
2018-08-23T03:40:03.734Z,91.50
2018-08-23T03:41:07.821Z,91.50
2018-08-23T03:42:12.217Z,91.60
2018-08-23T03:43:16.345Z,91.60
2018-08-23T03:44:26.531Z,91.70
2018-08-23T03:45:30.547Z,91.60
2018-08-23T03:46:46.416Z,91.60
2018-08-23T03:47:52.957Z,91.70
2018-08-23T03:49:04.215Z,91.80
2018-08-23T03:52:22.678Z,91.70
2018-08-23T03:53:42.272Z,91.80
2018-08-23T03:54:57.317Z,91.70
2018-08-23T03:56:07.847Z,91.80
2018-08-23T03:57:17.081Z,91.60
2018-08-23T03:58:21.186Z,91.90
2018-08-23T03:59:25.217Z,91.90
2018-08-23T04:01:06.298Z,91.90
2018-08-23T04:02:10.492Z,92.00
2018-08-23T04:03:20.470Z,91.90
2018-08-23T04:04:24.522Z,91.90
2018-08-23T04:05:28.526Z,91.90
2018-08-23T04:06:33.343Z,91.90
2018-08-23T04:07:39.354Z,91.90
2018-08-23T04:08:43.512Z,91.90
2018-08-23T04:09:47.515Z,92.00
2018-08-23T04:10:51.568Z,91.90
2018-08-23T04:11:55.786Z,91.90
2018-08-23T04:12:59.831Z,91.90
2018-08-23T04:14:03.895Z,91.80
2018-08-23T04:15:24.657Z,91.80
2018-08-23T04:16:30.259Z,91.80
2018-08-23T04:17:34.590Z,91.90
2018-08-23T04:18:38.666Z,91.80
2018-08-23T04:19:49.561Z,91.80
2018-08-23T04:20:56.053Z,91.80
2018-08-23T04:22:01.253Z,91.80
2018-08-23T04:23:05.397Z,91.70
2018-08-23T04:24:09.539Z,91.70
2018-08-23T04:25:13.574Z,91.70
2018-08-23T04:26:19.634Z,91.70
2018-08-23T04:27:25.424Z,91.70
2018-08-23T04:28:29.409Z,91.70
2018-08-23T04:29:38.711Z,91.70
2018-08-23T04:30:42.736Z,91.80
2018-08-23T04:31:47.017Z,91.80
2018-08-23T04:32:51.365Z,91.80
2018-08-23T04:33:55.400Z,91.80
2018-08-23T04:35:00.770Z,91.70
2018-08-23T04:36:05.591Z,91.80
2018-08-23T04:37:09.623Z,91.80
2018-08-23T04:38:14.844Z,91.70
2018-08-23T04:39:19.335Z,91.70
2018-08-23T04:40:23.436Z,91.60
2018-08-23T04:41:27.631Z,91.60
2018-08-23T04:42:31.805Z,91.50
2018-08-23T04:43:35.844Z,91.60
2018-08-23T04:44:48.036Z,91.60
2018-08-23T04:45:52.318Z,91.70
2018-08-23T04:46:56.611Z,91.80
2018-08-23T04:48:04.970Z,91.70
2018-08-23T04:49:09.314Z,91.80
2018-08-23T04:50:13.779Z,91.70
2018-08-23T04:51:18.346Z,91.70
2018-08-23T04:52:22.507Z,91.70
2018-08-23T04:53:26.607Z,91.70
2018-08-23T04:54:30.601Z,91.70
2018-08-23T04:55:34.640Z,91.70
2018-08-23T04:56:44.816Z,91.70
2018-08-23T04:57:49.640Z,91.70
2018-08-23T04:58:53.752Z,91.60
2018-08-23T04:59:57.776Z,91.50
2018-08-23T05:01:01.826Z,91.50
2018-08-23T05:02:06.207Z,91.50
2018-08-23T05:03:10.264Z,91.50
2018-08-23T05:04:15.377Z,91.50
2018-08-23T05:05:19.633Z,91.50
2018-08-23T05:06:23.790Z,91.40
2018-08-23T05:07:27.977Z,91.50
2018-08-23T05:08:32.211Z,91.40
2018-08-23T05:09:36.689Z,91.50
2018-08-23T05:10:40.808Z,91.50
2018-08-23T05:11:45.159Z,91.50
2018-08-23T05:12:49.355Z,91.40
2018-08-23T05:13:54.248Z,91.40
2018-08-23T05:14:58.650Z,91.50
2018-08-23T05:16:03.322Z,91.40
2018-08-23T05:17:09.765Z,91.40
2018-08-23T05:18:13.897Z,91.40
2018-08-23T05:19:19.506Z,91.40
2018-08-23T05:20:24.331Z,91.40
2018-08-23T05:21:28.601Z,91.30
2018-08-23T05:22:34.536Z,91.30
2018-08-23T05:23:39.084Z,91.20
2018-08-23T05:24:43.661Z,91.10
2018-08-23T05:25:48.045Z,91.10
2018-08-23T05:26:52.690Z,91.10
2018-08-23T05:28:15.486Z,91.10
2018-08-23T05:29:21.200Z,91.00
2018-08-23T05:30:30.848Z,91.20
2018-08-23T05:31:34.911Z,91.20
2018-08-23T05:32:39.046Z,91.20
2018-08-23T05:33:43.129Z,91.50
2018-08-23T05:34:47.693Z,91.10
2018-08-23T05:35:51.773Z,91.20
2018-08-23T05:36:55.859Z,91.10
2018-08-23T05:38:01.356Z,91.00
2018-08-23T05:39:08.472Z,90.90
2018-08-23T05:40:13.824Z,90.80
2018-08-23T05:41:21.576Z,90.70
2018-08-23T05:42:39.335Z,90.80
2018-08-23T05:43:43.925Z,90.70
2018-08-23T05:44:48.172Z,90.70
2018-08-23T05:45:53.716Z,90.70
2018-08-23T05:46:58.131Z,90.70
2018-08-23T05:48:34.149Z,90.70
2018-08-23T05:49:38.884Z,90.70
2018-08-23T05:50:44.755Z,91.00
2018-08-23T05:51:48.791Z,91.30
2018-08-23T05:52:53.761Z,91.40
2018-08-23T05:53:59.239Z,91.50
2018-08-23T05:55:03.710Z,91.50
2018-08-23T05:56:08.306Z,91.60
2018-08-23T05:57:12.780Z,91.50
2018-08-23T05:58:23.587Z,91.50
2018-08-23T05:59:27.738Z,91.50
2018-08-23T06:00:31.839Z,91.50
2018-08-23T06:01:35.943Z,91.40
2018-08-23T06:02:40.415Z,91.40
2018-08-23T06:03:45.984Z,91.50
2018-08-23T06:04:50.217Z,91.30
2018-08-23T06:05:54.723Z,91.30
2018-08-23T06:06:58.730Z,91.10
2018-08-23T06:08:02.748Z,91.10
2018-08-23T06:09:17.270Z,91.10
2018-08-23T06:10:21.389Z,91.10
2018-08-23T06:11:26.272Z,91.10
2018-08-23T06:12:32.942Z,91.10
2018-08-23T06:13:37.047Z,91.10
2018-08-23T06:14:41.169Z,91.20
2018-08-23T06:15:50.540Z,91.20
2018-08-23T06:16:56.555Z,91.20
2018-08-23T06:18:00.904Z,91.20
2018-08-23T06:19:05.054Z,91.20
2018-08-23T06:20:09.458Z,91.20
2018-08-23T06:21:12.988Z,91.30
2018-08-23T06:22:17.176Z,91.20
2018-08-23T06:23:21.265Z,91.20
2018-08-23T06:24:28.561Z,91.30
2018-08-23T06:25:32.812Z,91.40
2018-08-23T06:26:46.669Z,91.30
2018-08-23T06:27:51.152Z,91.30
2018-08-23T06:28:55.290Z,91.30
2018-08-23T06:29:59.660Z,91.40
2018-08-23T06:31:05.376Z,91.30
2018-08-23T06:32:10.712Z,91.30
2018-08-23T06:33:30.177Z,91.20
2018-08-23T06:34:35.959Z,91.30
2018-08-23T06:35:44.518Z,91.30
2018-08-23T06:36:48.574Z,91.20
2018-08-23T06:37:57.601Z,91.10
2018-08-23T06:39:02.266Z,91.00
2018-08-23T06:40:07.272Z,91.00
2018-08-23T06:41:11.503Z,91.00
2018-08-23T06:42:15.538Z,91.00
2018-08-23T06:43:20.085Z,90.80
2018-08-23T06:44:29.088Z,90.80
2018-08-23T06:45:33.792Z,90.80
2018-08-23T06:46:39.055Z,90.80
2018-08-23T06:47:46.845Z,90.80
2018-08-23T06:48:50.923Z,90.80
2018-08-23T06:49:56.001Z,90.90
2018-08-23T06:51:01.242Z,91.00
2018-08-23T06:52:12.996Z,91.00
2018-08-23T06:53:17.913Z,90.90
2018-08-23T06:54:22.080Z,90.90
2018-08-23T06:55:31.316Z,90.90
2018-08-23T06:56:38.032Z,90.90
2018-08-23T06:57:47.128Z,90.80
2018-08-23T06:58:51.861Z,90.80
2018-08-23T06:59:57.232Z,90.70
2018-08-23T07:01:05.504Z,90.70
2018-08-23T07:02:11.439Z,90.60
2018-08-23T07:03:17.623Z,90.60
2018-08-23T07:04:22.129Z,90.60
2018-08-23T07:05:27.715Z,90.50
2018-08-23T07:06:32.711Z,90.50
2018-08-23T07:07:37.072Z,90.50
2018-08-23T07:08:41.681Z,90.60
2018-08-23T07:09:45.938Z,90.50
2018-08-23T07:10:50.574Z,90.40
2018-08-23T07:12:03.231Z,90.40
2018-08-23T07:13:07.615Z,90.40
2018-08-23T07:14:16.767Z,90.50
2018-08-23T07:15:25.903Z,90.50
2018-08-23T07:16:30.252Z,90.50
2018-08-23T07:17:35.013Z,90.40
2018-08-23T07:18:39.187Z,90.50
2018-08-23T07:19:44.978Z,90.40
2018-08-23T07:20:50.342Z,90.30
2018-08-23T07:21:55.174Z,90.40
2018-08-23T07:22:59.403Z,90.30
2018-08-23T07:24:03.795Z,90.20
2018-08-23T07:25:13.225Z,90.10
2018-08-23T07:26:17.355Z,90.10
2018-08-23T07:27:24.543Z,90.10
2018-08-23T07:28:29.417Z,90.10
2018-08-23T07:29:36.519Z,90.00
2018-08-23T07:30:41.603Z,89.90
2018-08-23T07:31:57.360Z,89.90
2018-08-23T07:33:02.255Z,90.00
2018-08-23T07:34:06.828Z,90.00
2018-08-23T07:35:16.381Z,89.90
2018-08-23T07:36:29.106Z,89.90
2018-08-23T07:37:37.830Z,89.90
2018-08-23T07:38:47.023Z,89.70
2018-08-23T07:39:58.487Z,89.60
2018-08-23T07:41:03.389Z,89.50
2018-08-23T07:42:18.194Z,89.60
2018-08-23T07:43:23.145Z,89.60
2018-08-23T07:44:27.372Z,89.50
2018-08-23T07:45:31.500Z,89.60
2018-08-23T07:46:36.901Z,89.50
2018-08-23T07:47:46.213Z,89.50
2018-08-23T07:48:52.766Z,89.30
2018-08-23T07:50:02.161Z,89.30
2018-08-23T07:51:26.141Z,89.50
2018-08-23T07:52:32.067Z,89.30
2018-08-23T07:53:36.728Z,90.00
2018-08-23T07:54:42.324Z,89.30
2018-08-23T07:55:46.469Z,89.20
2018-08-23T07:56:52.364Z,89.20
2018-08-23T07:57:57.924Z,89.10
2018-08-23T07:59:03.128Z,89.10
2018-08-23T08:00:44.902Z,88.90
2018-08-23T08:01:49.774Z,88.90
2018-08-23T08:02:56.256Z,88.60
2018-08-23T08:04:01.575Z,88.60
2018-08-23T08:05:06.619Z,88.40
2018-08-23T08:06:17.087Z,88.40
2018-08-23T08:07:26.776Z,88.30
2018-08-23T08:08:35.094Z,88.30
2018-08-23T08:09:41.379Z,87.90
2018-08-23T08:10:48.451Z,87.80
2018-08-23T08:11:57.851Z,87.40
2018-08-23T08:13:02.344Z,87.40
2018-08-23T08:14:15.667Z,87.40
2018-08-23T08:15:21.337Z,87.10
2018-08-23T08:16:31.384Z,87.10
2018-08-23T08:17:36.328Z,86.80
2018-08-23T08:18:43.747Z,86.80
2018-08-23T08:20:02.841Z,86.70
2018-08-23T08:21:07.214Z,86.90
2018-08-23T08:22:11.416Z,86.50
2018-08-23T08:23:16.876Z,86.20
2018-08-23T08:24:23.320Z,86.20
2018-08-23T08:25:27.774Z,86.20
2018-08-23T08:26:33.684Z,86.20
2018-08-23T08:27:39.812Z,86.20
2018-08-23T08:28:46.775Z,86.10
2018-08-23T08:29:51.674Z,86.10
2018-08-23T08:31:01.390Z,86.10
2018-08-23T08:32:06.630Z,86.10
2018-08-23T08:33:14.101Z,85.90
2018-08-23T08:34:19.239Z,85.30
2018-08-23T08:35:23.464Z,85.40
2018-08-23T08:36:31.739Z,85.50
2018-08-23T08:37:36.095Z,85.30
2018-08-23T08:38:40.355Z,85.50
2018-08-23T08:39:45.178Z,85.30
2018-08-23T08:40:52.282Z,85.20
2018-08-23T08:41:57.737Z,84.90
2018-08-23T08:43:04.557Z,84.80
2018-08-23T08:44:09.058Z,84.80
2018-08-23T08:45:13.832Z,84.90
2018-08-23T08:46:18.249Z,84.90
2018-08-23T08:47:22.585Z,84.40
2018-08-23T08:48:33.062Z,84.30
2018-08-23T08:49:37.159Z,84.10
2018-08-23T08:52:10.796Z,83.90
2018-08-23T08:53:15.195Z,83.70
2018-08-23T08:54:19.648Z,83.50
2018-08-23T08:55:24.704Z,83.70
2018-08-23T08:56:35.473Z,83.70
2018-08-23T08:57:42.023Z,83.80
2018-08-23T08:58:47.219Z,83.60
2018-08-23T08:59:51.402Z,83.40
2018-08-23T09:00:58.008Z,83.20
2018-08-23T09:02:02.290Z,82.80
2018-08-23T09:03:06.843Z,81.60
2018-08-23T09:04:15.401Z,80.90
2018-08-23T09:05:19.772Z,80.40
2018-08-23T09:06:28.973Z,79.70
2018-08-23T09:07:36.661Z,79.60
2018-08-23T09:08:41.173Z,78.80
2018-08-23T09:09:45.458Z,79.00
2018-08-23T09:10:50.324Z,79.40
2018-08-23T09:11:55.301Z,79.20
2018-08-23T09:12:59.383Z,78.90
2018-08-23T09:14:07.094Z,78.90
2018-08-23T09:15:11.251Z,77.60
2018-08-23T09:16:16.085Z,76.90
2018-08-23T09:17:38.766Z,76.90
2018-08-23T09:18:46.411Z,76.80
2018-08-23T09:20:08.249Z,75.70
2018-08-23T09:21:14.779Z,74.10
2018-08-23T09:22:20.275Z,73.60
2018-08-23T09:23:25.457Z,73.30
2018-08-23T09:24:30.374Z,72.70
2018-08-23T09:25:40.174Z,72.50
2018-08-23T09:26:45.061Z,72.50
2018-08-23T09:27:50.204Z,72.60
2018-08-23T09:28:54.805Z,72.30
2018-08-23T09:29:59.936Z,72.70
2018-08-23T09:31:06.378Z,72.80
2018-08-23T09:32:13.952Z,72.90
2018-08-23T09:33:24.014Z,72.60
2018-08-23T09:34:28.132Z,72.60
2018-08-23T09:35:33.539Z,72.80
2018-08-23T09:36:38.303Z,72.60
2018-08-23T09:37:43.510Z,72.40
2018-08-23T09:38:48.915Z,72.30
2018-08-23T09:39:54.441Z,72.60
2018-08-23T09:40:58.826Z,71.70
2018-08-23T09:42:03.732Z,71.80
2018-08-23T09:43:08.410Z,71.40
2018-08-23T09:44:12.587Z,71.30
2018-08-23T09:45:20.537Z,71.20
2018-08-23T09:46:25.057Z,71.20
2018-08-23T09:47:31.328Z,71.30
2018-08-23T09:48:36.635Z,70.50
2018-08-23T09:49:44.177Z,70.50
2018-08-23T09:50:48.721Z,70.50
2018-08-23T09:51:53.335Z,69.10
2018-08-23T09:52:58.676Z,68.70
2018-08-23T09:54:03.911Z,68.60
2018-08-23T09:55:09.299Z,68.90
2018-08-23T09:56:31.205Z,68.90
2018-08-23T09:57:37.369Z,68.90
2018-08-23T09:58:42.222Z,68.80
2018-08-23T09:59:50.703Z,69.00
2018-08-23T10:01:00.590Z,69.40
2018-08-23T10:02:12.387Z,69.60
2018-08-23T10:03:22.001Z,69.00
2018-08-23T10:04:32.596Z,68.10
2018-08-23T10:05:47.560Z,67.70
2018-08-23T10:07:04.511Z,66.50
2018-08-23T10:08:13.903Z,66.30
2018-08-23T10:09:23.047Z,66.90
2018-08-23T10:10:32.730Z,66.60
2018-08-23T10:11:43.308Z,66.60
2018-08-23T10:12:52.709Z,66.20
2018-08-23T10:14:16.175Z,65.80
2018-08-23T10:15:26.616Z,65.90
2018-08-23T10:16:36.074Z,65.90
2018-08-23T10:17:46.788Z,65.60
2018-08-23T10:18:52.216Z,65.50
2018-08-23T10:20:01.695Z,65.30
2018-08-23T10:21:06.629Z,65.70
2018-08-23T10:22:16.229Z,65.30
2018-08-23T10:23:24.846Z,65.10
2018-08-23T10:24:33.263Z,65.20
2018-08-23T10:25:43.545Z,65.10
2018-08-23T10:26:49.168Z,64.20
2018-08-23T10:27:56.107Z,63.50
2018-08-23T10:29:01.340Z,63.20
2018-08-23T10:30:05.840Z,63.10
2018-08-23T10:31:12.271Z,62.20
2018-08-23T10:32:16.415Z,62.30
2018-08-23T10:33:25.924Z,62.30
2018-08-23T10:34:30.218Z,62.40
2018-08-23T10:35:48.216Z,62.30
2018-08-23T10:36:56.050Z,62.10
2018-08-23T10:38:00.665Z,61.70
2018-08-23T10:39:08.503Z,61.50
2018-08-23T10:40:13.167Z,61.30
2018-08-23T10:41:19.186Z,62.60
2018-08-23T10:42:24.115Z,62.60
2018-08-23T10:43:33.292Z,62.40
2018-08-23T10:44:37.492Z,62.60
2018-08-23T10:45:43.497Z,62.80
2018-08-23T10:46:54.682Z,62.70
2018-08-23T10:48:04.134Z,62.70
2018-08-23T10:49:08.727Z,62.40
2018-08-23T10:50:13.388Z,61.80
2018-08-23T10:51:19.283Z,61.90
2018-08-23T10:52:23.639Z,62.10
2018-08-23T10:53:28.256Z,61.70
2018-08-23T10:54:32.583Z,60.80
2018-08-23T10:55:37.997Z,60.90
2018-08-23T10:56:43.352Z,60.90
2018-08-23T10:57:49.271Z,60.50
2018-08-23T10:58:53.897Z,59.70
2018-08-23T10:59:58.238Z,59.20
2018-08-23T11:01:03.125Z,59.10
2018-08-23T11:02:07.568Z,59.20
2018-08-23T11:03:12.434Z,59.80
2018-08-23T11:04:16.636Z,59.40
2018-08-23T11:05:22.133Z,59.50
2018-08-23T11:06:26.303Z,58.90
2018-08-23T11:07:35.534Z,57.80
2018-08-23T11:08:39.876Z,58.00
2018-08-23T11:09:49.350Z,58.00
2018-08-23T11:10:59.357Z,57.90
2018-08-23T11:12:04.585Z,57.40
2018-08-23T11:13:13.835Z,57.50
2018-08-23T11:14:23.218Z,57.30
2018-08-23T11:15:28.431Z,57.00
2018-08-23T11:16:40.072Z,56.70
2018-08-23T11:17:52.189Z,56.20
2018-08-23T11:19:01.916Z,55.80
2018-08-23T11:20:11.805Z,56.20
2018-08-23T11:21:17.740Z,56.10
2018-08-23T11:22:26.414Z,56.10
2018-08-23T11:23:31.030Z,55.90
2018-08-23T11:24:35.573Z,55.70
2018-08-23T11:25:41.035Z,55.60
2018-08-23T11:27:13.427Z,55.60
2018-08-23T11:28:23.156Z,55.50
2018-08-23T11:29:28.200Z,54.80
2018-08-23T11:30:33.726Z,53.40
2018-08-23T11:31:41.674Z,53.00
2018-08-23T11:32:47.229Z,51.80
2018-08-23T11:34:06.218Z,50.20
2018-08-23T11:35:13.526Z,49.60
2018-08-23T11:36:18.289Z,48.80
2018-08-23T11:37:23.998Z,47.70
2018-08-23T11:38:30.385Z,45.90
2018-08-23T11:39:34.635Z,44.00
2018-08-23T11:40:39.044Z,42.60
2018-08-23T11:41:46.001Z,39.70
2018-08-23T11:42:52.665Z,38.30
2018-08-23T11:44:00.194Z,37.00
2018-08-23T11:45:09.504Z,36.40
2018-08-23T11:46:15.840Z,35.80
2018-08-23T11:47:20.443Z,34.10
2018-08-23T11:48:25.805Z,33.00
2018-08-23T11:49:32.108Z,31.90
2018-08-23T11:50:42.534Z,31.40
2018-08-23T11:51:52.968Z,30.80
2018-08-23T11:53:14.647Z,30.30
2018-08-23T11:54:18.752Z,29.70
2018-08-23T11:55:23.286Z,29.10
2018-08-23T11:56:28.742Z,29.00
2018-08-23T11:57:38.017Z,28.70
2018-08-23T11:58:48.239Z,28.60
2018-08-23T12:00:00.553Z,28.50
2018-08-23T12:01:22.068Z,28.20
2018-08-23T12:03:03.393Z,28.10
2018-08-23T12:04:08.870Z,27.80
2018-08-23T12:05:18.848Z,27.70
2018-08-23T12:06:23.569Z,27.50
2018-08-23T12:07:28.290Z,27.10
2018-08-23T12:08:33.539Z,26.90
2018-08-23T12:09:45.407Z,25.80
2018-08-23T12:10:55.065Z,25.90
2018-08-23T12:12:00.242Z,26.20
2018-08-23T12:13:06.754Z,26.40
2018-08-23T12:14:12.757Z,26.40
2018-08-23T12:15:24.644Z,26.50
2018-08-23T12:16:32.206Z,26.90
2018-08-23T12:17:40.370Z,26.90
2018-08-23T12:18:47.426Z,26.90
2018-08-23T12:19:52.090Z,26.50
2018-08-23T12:20:58.343Z,26.70
2018-08-23T12:22:02.930Z,26.20
2018-08-23T12:23:12.859Z,25.90
2018-08-23T12:24:18.020Z,25.60
2018-08-23T12:25:23.353Z,26.00
2018-08-23T12:26:28.270Z,27.00
2018-08-23T12:27:32.483Z,27.70
2018-08-23T12:28:46.705Z,28.80
2018-08-23T12:29:53.114Z,29.70
2018-08-23T12:30:57.653Z,29.60
2018-08-23T12:32:06.648Z,29.40
2018-08-23T12:33:11.401Z,29.20
2018-08-23T12:34:25.572Z,28.90
2018-08-23T12:35:31.365Z,29.10
2018-08-23T12:36:41.078Z,29.30
2018-08-23T12:37:56.259Z,29.10
2018-08-23T12:39:06.779Z,29.50
2018-08-23T12:40:17.113Z,30.00
2018-08-23T12:41:26.482Z,29.90
2018-08-23T12:42:52.333Z,30.00
2018-08-23T12:44:27.225Z,29.90
2018-08-23T12:45:32.752Z,30.20
2018-08-23T12:46:36.875Z,31.00
2018-08-23T12:47:41.281Z,31.90
2018-08-23T12:48:46.029Z,32.70
2018-08-23T12:49:51.219Z,32.40
2018-08-23T12:50:55.656Z,32.90
2018-08-23T12:52:00.028Z,33.90
2018-08-23T12:53:04.152Z,34.60
2018-08-23T12:54:09.447Z,35.10
2018-08-23T12:55:15.352Z,35.20
2018-08-23T12:56:19.488Z,35.70
2018-08-23T12:57:24.702Z,36.50
2018-08-23T12:58:29.240Z,36.40
2018-08-23T12:59:34.324Z,37.10
2018-08-23T13:00:39.399Z,37.50
2018-08-23T13:01:44.247Z,36.80
2018-08-23T13:02:48.486Z,35.80
2018-08-23T13:03:52.652Z,35.60
2018-08-23T13:04:57.161Z,35.40
2018-08-23T13:06:02.035Z,35.60
2018-08-23T13:07:07.307Z,36.00
2018-08-23T13:08:11.794Z,36.50
2018-08-23T13:09:16.090Z,36.50
2018-08-23T13:10:20.210Z,37.10
2018-08-23T13:11:24.443Z,37.70
2018-08-23T13:12:29.177Z,38.70
2018-08-23T13:13:34.678Z,39.40
2018-08-23T13:14:38.780Z,39.80
2018-08-23T13:15:43.470Z,40.20
2018-08-23T13:16:47.607Z,40.20
2018-08-23T13:17:53.769Z,40.50
2018-08-23T13:18:59.189Z,41.40
2018-08-23T13:20:03.587Z,42.10
2018-08-23T13:21:10.746Z,42.40
2018-08-23T13:22:47.205Z,42.80
2018-08-23T13:23:52.472Z,43.30
2018-08-23T13:25:02.790Z,43.80
2018-08-23T13:26:08.733Z,44.00
2018-08-23T13:27:13.291Z,44.30
2018-08-23T13:28:18.339Z,44.50
2018-08-23T13:29:23.480Z,44.80
2018-08-23T13:30:28.148Z,45.10
2018-08-23T13:31:33.284Z,45.80
2018-08-23T13:32:37.792Z,46.10
2018-08-23T13:33:42.625Z,46.20
2018-08-23T13:34:46.767Z,46.60
2018-08-23T13:35:51.401Z,46.50
2018-08-23T13:36:56.521Z,46.70
2018-08-23T13:38:01.407Z,46.80
2018-08-23T13:39:12.777Z,47.10
2018-08-23T13:40:20.176Z,47.00
2018-08-23T13:41:24.261Z,47.10
2018-08-23T13:42:28.424Z,47.10
2018-08-23T13:43:32.954Z,47.20
2018-08-23T13:44:37.673Z,47.60
2018-08-23T13:45:43.924Z,47.40
2018-08-23T13:46:48.120Z,47.60
2018-08-23T13:47:52.834Z,48.00
2018-08-23T13:48:57.431Z,48.50
2018-08-23T13:50:03.615Z,48.70
2018-08-23T13:51:11.158Z,48.40
2018-08-23T13:52:17.081Z,48.60
2018-08-23T13:53:23.224Z,48.90
2018-08-23T13:54:31.737Z,49.20
2018-08-23T13:55:38.191Z,48.80
2018-08-23T13:56:43.611Z,48.70
2018-08-23T13:57:50.108Z,48.80
2018-08-23T13:58:56.751Z,49.10
2018-08-23T14:00:02.783Z,49.30
2018-08-23T14:01:07.189Z,49.70
2018-08-23T14:02:12.222Z,49.80
2018-08-23T14:03:20.431Z,48.80
2018-08-23T14:04:29.606Z,48.90
2018-08-23T14:05:34.191Z,48.20
2018-08-23T14:06:38.720Z,48.50
2018-08-23T14:07:43.763Z,48.90
2018-08-23T14:08:48.172Z,49.40
2018-08-23T14:09:55.092Z,49.50
2018-08-23T14:11:01.098Z,49.70
2018-08-23T14:12:06.307Z,49.90
2018-08-23T14:13:12.309Z,49.40
2018-08-23T14:14:18.687Z,49.30
2018-08-23T14:15:28.219Z,49.50
2018-08-23T14:16:33.527Z,49.90
2018-08-23T14:17:39.351Z,49.80
2018-08-23T14:18:45.466Z,49.80
2018-08-23T14:19:51.104Z,49.90
2018-08-23T14:20:56.359Z,50.20
2018-08-23T14:22:01.433Z,50.20
2018-08-23T14:23:07.549Z,49.90
2018-08-23T14:24:14.140Z,49.90
2018-08-23T14:25:19.094Z,50.30